createdAt,value
2019-04-05T00:00:24.637Z,5.00
2019-04-05T00:05:18.752Z,5.00
2019-04-05T00:10:13.036Z,5.00
2019-04-05T00:15:15.077Z,5.15
2019-04-05T00:20:05.174Z,5.12
2019-04-05T00:24:59.255Z,5.14
2019-04-05T00:29:53.235Z,5.10
2019-04-05T00:34:47.191Z,5.18
2019-04-05T00:39:41.195Z,5.23
2019-04-05T00:44:35.175Z,5.19
2019-04-05T00:49:29.245Z,5.28
2019-04-05T00:54:23.203Z,5.21
2019-04-05T00:59:17.143Z,5.28
2019-04-05T01:04:11.129Z,5.23
2019-04-05T01:09:06.705Z,5.26
2019-04-05T01:14:00.672Z,5.28
2019-04-05T01:18:54.686Z,5.26
2019-04-05T01:23:51.155Z,5.30
2019-04-05T01:28:45.215Z,5.33
2019-04-05T01:33:39.200Z,5.31
2019-04-05T01:38:33.271Z,5.36
2019-04-05T01:43:27.453Z,5.35
2019-04-05T01:48:21.423Z,5.34
2019-04-05T01:53:15.785Z,5.31
2019-04-05T01:58:10.086Z,5.32
2019-04-05T02:03:04.160Z,5.43
2019-04-05T02:07:58.417Z,5.30
2019-04-05T02:12:52.531Z,5.27
2019-04-05T02:17:46.670Z,5.15
2019-04-05T02:22:40.638Z,5.17
2019-04-05T02:27:34.699Z,5.12
2019-04-05T02:32:28.852Z,5.24
2019-04-05T02:37:22.918Z,5.29
2019-04-05T02:42:17.697Z,5.23
2019-04-05T02:47:12.048Z,5.34
2019-04-05T02:52:06.330Z,5.30
2019-04-05T02:57:01.028Z,5.23
2019-04-05T03:01:55.202Z,5.17
2019-04-05T03:06:50.163Z,5.14
2019-04-05T03:11:44.224Z,5.28
2019-04-05T03:16:41.999Z,5.17
2019-04-05T03:21:39.701Z,5.19
2019-04-05T03:26:36.198Z,5.18
2019-04-05T03:31:30.391Z,5.31
2019-04-05T03:36:24.449Z,5.29
2019-04-05T03:41:18.507Z,5.36
2019-04-05T03:46:12.582Z,5.35
2019-04-05T03:51:07.444Z,5.31
2019-04-05T03:56:02.246Z,5.33
2019-04-05T04:00:56.566Z,5.30
2019-04-05T04:05:50.741Z,5.33
2019-04-05T04:10:45.939Z,5.27
2019-04-05T04:15:40.097Z,5.31
2019-04-05T04:20:41.141Z,5.20
2019-04-05T04:25:36.059Z,5.16
2019-04-05T04:30:30.636Z,5.11
2019-04-05T04:35:24.700Z,5.12
2019-04-05T04:40:18.969Z,5.31
2019-04-05T04:45:13.216Z,5.20
2019-04-05T04:50:07.851Z,5.26
2019-04-05T04:55:02.523Z,5.17
2019-04-05T04:59:56.839Z,5.08
2019-04-05T05:04:51.047Z,5.10
2019-04-05T05:09:45.509Z,4.98
2019-04-05T05:14:39.798Z,4.98
2019-04-05T05:19:33.900Z,5.05
2019-04-05T05:24:28.067Z,5.19
2019-04-05T05:29:22.351Z,5.24
2019-04-05T05:34:16.535Z,5.24
2019-04-05T05:39:10.601Z,5.32
2019-04-05T05:44:04.675Z,5.30
2019-04-05T05:48:58.782Z,5.42
2019-04-05T05:53:52.870Z,5.49
2019-04-05T05:58:46.867Z,5.67
2019-04-05T06:03:40.993Z,5.81
2019-04-05T06:08:35.271Z,5.97
2019-04-05T06:13:29.222Z,6.15
2019-04-05T06:18:23.226Z,6.25
2019-04-05T06:23:17.483Z,6.40
2019-04-05T06:28:11.654Z,6.43
2019-04-05T06:33:05.771Z,6.47
2019-04-05T06:37:59.842Z,6.53
2019-04-05T06:42:53.805Z,6.47
2019-04-05T06:47:47.777Z,6.60
2019-04-05T06:52:41.787Z,6.85
2019-04-05T06:57:35.759Z,6.93
2019-04-05T07:02:29.872Z,6.84
2019-04-05T07:07:24.034Z,6.91
2019-04-05T07:12:20.531Z,6.90
2019-04-05T07:17:14.085Z,6.87
2019-04-05T07:22:08.071Z,7.00
2019-04-05T07:27:02.255Z,7.01
2019-04-05T07:31:56.354Z,7.30
2019-04-05T07:36:50.426Z,7.52
2019-04-05T07:41:44.400Z,7.96
2019-04-05T07:46:38.384Z,8.41
2019-04-05T07:51:32.361Z,8.89
2019-04-05T07:56:26.439Z,8.49
2019-04-05T08:01:20.575Z,8.51
2019-04-05T08:06:15.509Z,8.48
2019-04-05T08:11:09.772Z,8.39
2019-04-05T08:16:03.897Z,8.43
2019-04-05T08:20:57.913Z,8.67
2019-04-05T08:25:52.019Z,9.10
2019-04-05T08:30:45.996Z,9.28
2019-04-05T08:35:40.076Z,9.12
2019-04-05T08:40:34.054Z,9.91
2019-04-05T08:45:28.211Z,10.83
2019-04-05T08:50:22.209Z,11.32
2019-04-05T08:55:16.344Z,11.12
2019-04-05T09:00:10.783Z,11.20
2019-04-05T09:05:06.674Z,11.10
2019-04-05T09:10:00.647Z,11.02
2019-04-05T09:14:54.719Z,11.00
2019-04-05T09:19:48.710Z,11.08
2019-04-05T09:24:42.693Z,11.29
2019-04-05T09:29:36.673Z,11.07
2019-04-05T09:34:30.990Z,11.29
2019-04-05T09:39:25.242Z,11.22
2019-04-05T09:44:19.359Z,11.61
2019-04-05T09:49:13.324Z,12.07
2019-04-05T09:54:07.369Z,12.87
2019-04-05T09:59:01.343Z,13.67
2019-04-05T10:03:55.464Z,14.11
2019-04-05T10:08:49.523Z,15.07
2019-04-05T10:13:43.617Z,14.79
2019-04-05T10:18:37.613Z,14.27
2019-04-05T10:23:31.630Z,13.96
2019-04-05T10:28:25.621Z,14.68
2019-04-05T10:33:19.618Z,16.27
2019-04-05T10:38:13.978Z,16.20
2019-04-05T10:43:08.070Z,16.24
2019-04-05T10:48:02.362Z,16.14
2019-04-05T10:52:56.482Z,15.31
2019-04-05T10:57:50.537Z,14.60
2019-04-05T11:02:44.731Z,14.48
2019-04-05T11:07:38.736Z,14.56
2019-04-05T11:12:32.669Z,14.76
2019-04-05T11:17:26.650Z,14.65
2019-04-05T11:22:21.147Z,13.82
2019-04-05T11:27:15.216Z,13.16
2019-04-05T11:32:09.302Z,12.75
2019-04-05T11:37:03.493Z,12.74
2019-04-05T11:41:58.010Z,13.53
2019-04-05T11:46:53.294Z,13.96
2019-04-05T11:51:47.370Z,13.83
2019-04-05T11:56:41.369Z,13.45
2019-04-05T12:01:37.288Z,13.01
2019-04-05T12:06:31.285Z,13.24
2019-04-05T12:11:25.409Z,13.22
2019-04-05T12:16:19.519Z,13.10
2019-04-05T12:21:13.719Z,12.75
2019-04-05T12:26:07.818Z,12.35
2019-04-05T12:31:01.921Z,12.40
2019-04-05T12:35:56.598Z,12.25
2019-04-05T12:40:51.145Z,12.53
2019-04-05T12:45:45.303Z,12.84
2019-04-05T12:50:39.442Z,12.78
2019-04-05T12:55:33.693Z,12.69
2019-04-05T13:00:27.795Z,12.47
2019-04-05T13:05:21.969Z,12.43
2019-04-05T13:10:16.261Z,12.53
2019-04-05T13:15:16.594Z,12.41
2019-04-05T13:20:07.031Z,11.80
2019-04-05T13:25:01.416Z,12.02
2019-04-05T13:29:55.488Z,11.99
2019-04-05T13:34:49.537Z,12.10
2019-04-05T13:39:43.589Z,12.06
2019-04-05T13:44:37.616Z,12.03
2019-04-05T13:49:31.592Z,12.13
2019-04-05T13:54:25.837Z,11.95
2019-04-05T13:59:19.924Z,11.86
2019-04-05T14:04:16.858Z,11.89
2019-04-05T14:09:10.489Z,12.11
2019-04-05T14:14:04.936Z,11.97
2019-04-05T14:18:59.151Z,11.91
2019-04-05T14:23:53.918Z,11.69
2019-04-05T14:28:48.137Z,11.46
2019-04-05T14:33:42.310Z,11.26
2019-04-05T14:38:36.320Z,11.04
2019-04-05T14:43:30.438Z,11.26
2019-04-05T14:48:27.341Z,11.12
2019-04-05T14:53:20.275Z,11.05
2019-04-05T14:58:14.380Z,11.05
2019-04-05T15:03:08.397Z,11.04
2019-04-05T15:08:02.545Z,10.87
2019-04-05T15:12:56.627Z,10.83
2019-04-05T15:17:50.693Z,11.00
2019-04-05T15:22:44.709Z,10.88
2019-04-05T15:27:38.903Z,10.67
2019-04-05T15:32:33.998Z,10.53
2019-04-05T15:37:31.771Z,10.42
2019-04-05T15:42:24.054Z,10.36
2019-04-05T15:47:18.092Z,10.40
2019-04-05T15:52:18.712Z,10.29
2019-04-05T15:57:08.090Z,10.14
2019-04-05T16:02:03.937Z,10.23
2019-04-05T16:06:58.077Z,10.21
2019-04-05T16:11:52.257Z,10.26
2019-04-05T16:16:46.460Z,10.14
2019-04-05T16:21:40.565Z,10.08
2019-04-05T16:26:34.791Z,9.91
2019-04-05T16:31:28.913Z,9.92
2019-04-05T16:36:23.144Z,9.83
2019-04-05T16:41:17.307Z,9.79
2019-04-05T16:46:11.417Z,9.69
2019-04-05T16:51:05.534Z,9.68
2019-04-05T16:55:59.754Z,9.65
2019-04-05T17:00:53.766Z,9.63
2019-04-05T17:05:47.880Z,9.66
2019-04-05T17:10:41.860Z,9.59
2019-04-05T17:15:36.061Z,9.59
2019-04-05T17:20:30.080Z,9.61
2019-04-05T17:25:24.202Z,9.58
2019-04-05T17:30:18.304Z,9.56
2019-04-05T17:35:12.497Z,9.52
2019-04-05T17:40:06.900Z,9.45
2019-04-05T17:45:00.996Z,9.38
2019-04-05T17:49:54.991Z,9.29
2019-04-05T17:54:49.084Z,9.25
2019-04-05T17:59:43.303Z,9.26
2019-04-05T18:04:37.432Z,9.22
2019-04-05T18:09:31.466Z,9.13
2019-04-05T18:14:25.684Z,9.10
2019-04-05T18:19:19.792Z,9.07
2019-04-05T18:24:13.793Z,9.03
2019-04-05T18:29:07.900Z,9.05
2019-04-05T18:34:01.981Z,9.04
2019-04-05T18:38:56.187Z,8.96
2019-04-05T18:43:50.167Z,9.02
2019-04-05T18:48:44.283Z,9.04
2019-04-05T18:53:38.772Z,9.03
2019-04-05T18:58:32.772Z,8.95
2019-04-05T19:03:26.786Z,8.98
2019-04-05T19:08:21.023Z,8.96
2019-04-05T19:13:15.300Z,8.91
2019-04-05T19:18:09.490Z,8.88
2019-04-05T19:23:03.549Z,8.75
2019-04-05T19:27:57.669Z,8.83
2019-04-05T19:52:35.774Z,8.79
2019-04-05T19:57:29.746Z,8.78
2019-04-05T20:02:24.168Z,8.78
2019-04-05T20:07:18.315Z,8.77
2019-04-05T20:12:12.499Z,8.79
2019-04-05T20:17:08.177Z,8.75
2019-04-05T20:22:02.543Z,8.74
2019-04-05T20:26:56.663Z,8.73
2019-04-05T20:31:50.777Z,8.71
2019-04-05T20:36:44.772Z,8.73
2019-04-05T20:41:38.883Z,8.72
2019-04-05T20:46:32.836Z,8.68
2019-04-05T20:51:26.935Z,8.73
2019-04-05T20:56:20.925Z,8.68
2019-04-05T21:01:15.112Z,8.66
2019-04-05T21:06:09.190Z,8.57
2019-04-05T21:11:03.380Z,8.56
2019-04-05T21:15:57.686Z,8.60
2019-04-05T21:20:51.933Z,8.53
2019-04-05T21:25:45.956Z,8.60
2019-04-05T21:30:40.081Z,8.62
2019-04-05T21:35:34.322Z,8.56
2019-04-05T21:40:28.310Z,8.63
2019-04-05T21:45:22.501Z,8.60
2019-04-05T21:50:16.479Z,8.53
2019-04-05T21:55:10.863Z,8.61
2019-04-05T22:00:11.750Z,8.61
2019-04-05T22:05:06.191Z,8.63
2019-04-05T22:10:00.298Z,8.69
2019-04-05T22:14:54.281Z,8.65
2019-04-05T22:19:48.287Z,8.67
2019-04-05T22:24:42.389Z,8.65
2019-04-05T22:29:36.455Z,8.56
2019-04-05T22:34:30.465Z,8.65
2019-04-05T22:39:24.501Z,8.63
2019-04-05T22:44:18.476Z,8.64
2019-04-05T22:49:12.447Z,8.69
2019-04-05T22:54:06.621Z,8.67
2019-04-05T22:59:00.611Z,8.55
2019-04-05T23:03:54.679Z,8.65
2019-04-05T23:08:48.674Z,8.68
2019-04-05T23:13:42.817Z,8.69
2019-04-05T23:18:36.935Z,8.62
2019-04-05T23:23:30.914Z,8.69
2019-04-05T23:28:25.060Z,8.73
2019-04-05T23:33:19.147Z,8.63
2019-04-05T23:38:13.417Z,8.66
2019-04-05T23:43:07.401Z,8.73
2019-04-05T23:48:01.392Z,8.80
2019-04-05T23:52:55.363Z,8.76
2019-04-05T23:57:49.367Z,8.75
